Time;durP1;ratioP1;P1;durP2;ratioP2;P2;SDS_P1;SDS_P2;PMS_P1;PMS_P2;Temp;Humidity;BMP_temperature;BMP_pressure;BME280_temperature;BME280_humidity;BME280_pressure;Samples;Min_cycle;Max_cycle;Signal;HPM_P1;HPM_P2
2021/07/08 00:01:32;;;;;;;11.05;5.47;;;;;;;29.24;42.42;99818.50;4484215;32;33871;-74
2021/07/08 00:04:00;;;;;;;10.25;5.47;;;;;;;29.20;42.42;99826.44;4483828;32;33482;-74
2021/07/08 00:06:28;;;;;;;7.97;5.28;;;;;;;29.20;42.41;99833.84;4469375;32;33199;-74
2021/07/08 00:08:55;;;;;;;9.85;4.85;;;;;;;29.20;42.51;99834.69;4483897;32;33731;-74
2021/07/08 00:11:23;;;;;;;10.07;4.70;;;;;;;29.17;42.54;99837.94;4491329;31;34658;-72
2021/07/08 00:13:50;;;;;;;11.75;5.43;;;;;;;29.20;42.38;99836.59;4499194;31;34300;-74
2021/07/08 00:16:18;;;;;;;7.53;5.55;;;;;;;29.16;42.34;99838.22;4499652;31;34021;-72
2021/07/08 00:18:46;;;;;;;9.48;5.47;;;;;;;29.16;42.28;99841.78;4499552;31;34630;-74
2021/07/08 00:21:13;;;;;;;8.40;5.18;;;;;;;29.16;42.33;99847.28;4499334;31;34823;-73
2021/07/08 00:23:41;;;;;;;9.77;5.80;;;;;;;29.16;42.30;99841.78;4499269;31;33529;-74
2021/07/08 00:26:08;;;;;;;11.57;5.50;;;;;;;29.15;42.28;99836.56;4499448;31;34088;-73
2021/07/08 00:28:36;;;;;;;8.13;4.72;;;;;;;29.15;42.18;99837.41;4473911;32;35143;-73
2021/07/08 00:31:03;;;;;;;10.95;5.20;;;;;;;29.16;42.33;99843.72;4483406;32;35268;-71
2021/07/08 00:33:31;;;;;;;7.07;5.45;;;;;;;29.15;42.23;99842.88;4483632;32;33533;-72
2021/07/08 00:35:59;;;;;;;8.68;5.30;;;;;;;29.17;42.22;99846.19;4469216;32;33503;-74
2021/07/08 00:38:26;;;;;;;8.55;5.57;;;;;;;29.17;42.22;99837.12;4469385;32;34152;-73
2021/07/08 00:40:54;;;;;;;8.02;5.47;;;;;;;29.15;42.23;99837.41;4456618;32;33812;-72
2021/07/08 00:43:21;;;;;;;16.83;6.00;;;;;;;29.17;42.30;99839.88;4483307;32;33488;-74
2021/07/08 00:45:49;;;;;;;9.23;5.45;;;;;;;29.14;42.25;99841.22;4483432;31;33907;-69
2021/07/08 00:48:16;;;;;;;8.02;5.28;;;;;;;29.14;42.36;99843.94;4499274;31;33987;-75
2021/07/08 00:50:46;;;;;;;9.68;5.82;;;;;;;29.14;42.16;99843.94;4499365;31;33583;-74
2021/07/08 00:53:18;;;;;;;7.55;4.93;;;;;;;29.13;42.41;99842.31;4499146;31;33131;-74
2021/07/08 00:55:52;;;;;;;8.95;5.05;;;;;;;29.13;42.47;99845.06;4498775;31;34536;-74
2021/07/08 00:58:19;;;;;;;13.10;5.12;;;;;;;29.13;42.45;99836.00;4484728;31;34712;-72
2021/07/08 01:00:47;;;;;;;7.32;5.40;;;;;;;29.13;42.41;99839.56;4498982;31;33912;-70
2021/07/08 01:03:15;;;;;;;8.90;5.78;;;;;;;29.11;42.25;99836.25;4484716;31;34145;-70
2021/07/08 01:05:44;;;;;;;8.95;5.50;;;;;;;29.09;42.21;99835.69;4471747;31;33133;-74
2021/07/08 01:08:12;;;;;;;11.02;5.37;;;;;;;29.11;42.31;99844.50;4489359;31;34124;-74
2021/07/08 01:10:40;;;;;;;7.87;5.50;;;;;;;29.13;42.31;99844.22;4482887;32;34014;-74
2021/07/08 01:13:08;;;;;;;8.95;6.10;;;;;;;29.12;42.42;99840.66;4468950;32;32959;-72
2021/07/08 01:15:35;;;;;;;7.35;5.05;;;;;;;29.12;42.37;99842.56;4483059;32;33857;-73
2021/07/08 01:18:03;;;;;;;12.00;5.55;;;;;;;29.11;42.29;99844.50;4482776;32;34927;-72
2021/07/08 01:20:32;;;;;;;9.32;5.25;;;;;;;29.11;42.18;99850.00;4482881;32;34800;-72
2021/07/08 01:23:00;;;;;;;7.10;5.17;;;;;;;29.12;42.19;99845.31;4482868;32;34202;-71
2021/07/08 01:25:37;;;;;;;8.23;5.25;;;;;;;29.12;42.07;99848.91;4482584;32;34434;-73
2021/07/08 01:28:06;;;;;;;7.53;5.47;;;;;;;29.11;41.98;99847.25;4491651;31;33993;-72
2021/07/08 01:30:33;;;;;;;8.75;5.80;;;;;;;29.10;42.20;99848.34;4492154;31;34634;-74
2021/07/08 01:33:03;;;;;;;9.55;5.28;;;;;;;29.11;42.10;99847.25;4479418;31;33005;-71
2021/07/08 01:35:31;;;;;;;11.35;6.10;;;;;;;29.10;42.05;99862.09;4498838;31;33973;-73
2021/07/08 01:37:58;;;;;;;9.65;5.60;;;;;;;29.10;42.01;99853.84;4500652;31;33856;-73
2021/07/08 01:40:26;;;;;;;10.57;5.68;;;;;;;29.10;42.02;99851.09;4500611;31;33566;-73
2021/07/08 01:42:54;;;;;;;11.50;5.55;;;;;;;29.11;42.21;99851.91;4500726;31;33404;-71
2021/07/08 01:45:22;;;;;;;14.93;5.55;;;;;;;29.12;42.09;99854.41;4500515;31;34243;-72
2021/07/08 01:47:49;;;;;;;8.75;5.35;;;;;;;29.10;42.20;99848.34;4496741;31;34852;-74
2021/07/08 01:50:18;;;;;;;10.75;5.93;;;;;;;29.09;42.17;99854.91;4472841;32;34195;-73
2021/07/08 01:52:46;;;;;;;8.20;6.35;;;;;;;29.09;42.32;99843.09;4497729;31;33478;-72
2021/07/08 01:55:14;;;;;;;14.32;5.93;;;;;;;29.10;42.18;99847.50;4499703;31;34785;-71
2021/07/08 01:57:43;;;;;;;13.50;4.95;;;;;;;29.09;42.16;99846.66;4500318;31;34076;-69
2021/07/08 02:00:13;;;;;;;9.95;5.22;;;;;;;29.09;42.13;99848.59;4486407;31;34427;-72
2021/07/08 02:02:41;;;;;;;11.35;5.47;;;;;;;29.07;41.96;99851.59;4486380;31;33538;-72
2021/07/08 02:05:10;;;;;;;11.77;6.22;;;;;;;29.08;41.97;99842.28;4500558;31;33979;-72
2021/07/08 02:07:37;;;;;;;11.30;6.05;;;;;;;29.08;42.03;99841.44;4485986;31;35046;-73
2021/07/08 02:10:06;;;;;;;17.27;5.87;;;;;;;29.08;42.14;99839.53;4500426;31;34863;-71
2021/07/08 02:12:34;;;;;;;9.63;6.47;;;;;;;29.07;42.11;99842.53;4500394;31;33738;-71
2021/07/08 02:15:02;;;;;;;12.07;5.62;;;;;;;29.09;42.18;99838.44;4500347;31;33686;-70
2021/07/08 02:17:30;;;;;;;10.45;6.28;;;;;;;29.09;42.25;99832.09;4500427;31;33963;-72
2021/07/08 02:19:58;;;;;;;9.10;6.25;;;;;;;29.08;42.17;99839.53;4500449;31;33844;-71
2021/07/08 02:22:25;;;;;;;14.95;5.93;;;;;;;29.09;42.22;99832.09;4500317;31;33652;-72
2021/07/08 02:24:52;;;;;;;12.90;6.00;;;;;;;29.07;42.19;99835.13;4500470;31;33947;-71
2021/07/08 02:27:20;;;;;;;14.05;6.00;;;;;;;29.07;41.91;99837.88;4500311;31;34872;-72
2021/07/08 02:29:49;;;;;;;11.02;5.87;;;;;;;29.07;41.90;99851.59;4500253;31;33810;-72
2021/07/08 02:32:16;;;;;;;7.40;5.68;;;;;;;29.07;42.05;99848.87;4500344;31;33095;-72
2021/07/08 02:34:44;;;;;;;14.45;6.12;;;;;;;29.06;41.89;99849.13;4500225;31;33900;-73
2021/07/08 02:37:11;;;;;;;11.82;6.07;;;;;;;29.06;41.99;99847.22;4486183;31;34872;-72
2021/07/08 02:39:38;;;;;;;10.75;6.07;;;;;;;29.06;41.82;99851.88;4500268;31;33548;-73
2021/07/08 02:42:06;;;;;;;8.60;5.80;;;;;;;29.06;42.09;99857.38;4500287;31;34343;-72
2021/07/08 02:44:34;;;;;;;12.55;6.47;;;;;;;29.07;42.15;99851.59;4500007;31;33854;-72
2021/07/08 02:47:01;;;;;;;14.68;6.53;;;;;;;29.06;42.08;99858.22;4498980;31;34325;-72
2021/07/08 02:49:29;;;;;;;10.52;6.22;;;;;;;29.05;42.03;99856.56;4485961;31;34084;-72
2021/07/08 02:51:56;;;;;;;11.82;6.65;;;;;;;29.06;41.74;99862.88;4500069;31;33502;-73
2021/07/08 02:54:23;;;;;;;7.72;6.25;;;;;;;29.06;41.96;99860.94;4485991;31;33877;-72
2021/07/08 02:56:51;;;;;;;8.48;6.20;;;;;;;29.05;42.05;99861.19;4499858;31;34104;-72
2021/07/08 02:59:20;;;;;;;8.93;5.72;;;;;;;29.04;41.95;99868.59;4500258;31;34712;-73
2021/07/08 03:01:47;;;;;;;9.32;5.65;;;;;;;29.06;41.93;99871.94;4500115;31;33698;-72
2021/07/08 03:04:15;;;;;;;9.38;5.93;;;;;;;29.05;41.83;99875.78;4485480;31;33892;-72
2021/07/08 03:06:42;;;;;;;11.25;6.03;;;;;;;29.04;42.01;99862.28;4499769;31;35073;-70
2021/07/08 03:09:09;;;;;;;13.68;6.47;;;;;;;29.04;42.01;99865.03;4500107;31;33522;-72
2021/07/08 03:11:37;;;;;;;12.20;5.95;;;;;;;29.04;42.06;99879.59;4485381;31;32388;-72
2021/07/08 03:14:04;;;;;;;11.40;6.00;;;;;;;29.04;42.31;99868.59;4499971;31;34409;-72
2021/07/08 03:16:32;;;;;;;13.75;6.50;;;;;;;29.04;42.24;99865.88;4500083;31;33812;-72
2021/07/08 03:19:00;;;;;;;8.52;6.25;;;;;;;29.03;42.07;99866.97;4500018;31;34670;-73
2021/07/08 03:21:27;;;;;;;10.07;5.78;;;;;;;29.04;42.20;99867.78;4500053;31;33104;-72
2021/07/08 03:23:55;;;;;;;11.50;6.22;;;;;;;29.02;42.32;99854.31;4485557;31;33114;-73
2021/07/08 03:26:22;;;;;;;11.48;6.45;;;;;;;29.03;42.17;99861.47;4499851;31;33964;-72
2021/07/08 03:28:50;;;;;;;10.93;6.25;;;;;;;29.03;42.26;99861.47;4485650;31;34311;-72
2021/07/08 03:31:19;;;;;;;9.02;5.87;;;;;;;29.02;42.08;99857.06;4500261;31;33665;-73
2021/07/08 03:33:47;;;;;;;10.00;6.32;;;;;;;29.03;42.29;99850.47;4499794;31;33902;-72
2021/07/08 03:36:14;;;;;;;8.45;5.87;;;;;;;29.03;42.14;99855.97;4499889;31;34040;-72
2021/07/08 03:38:42;;;;;;;8.50;6.20;;;;;;;29.02;42.02;99856.25;4499828;31;34031;-73
2021/07/08 03:41:09;;;;;;;9.20;6.18;;;;;;;29.02;42.18;99857.06;4498467;31;33387;-74
2021/07/08 03:43:37;;;;;;;9.45;6.32;;;;;;;29.02;42.16;99859.00;4484070;32;34561;-72
2021/07/08 03:46:05;;;;;;;10.60;6.65;;;;;;;29.02;42.23;99854.31;4483957;32;33981;-72
2021/07/08 03:48:33;;;;;;;8.95;5.85;;;;;;;29.02;41.94;99861.75;4483641;32;35428;-71
2021/07/08 03:51:00;;;;;;;9.38;5.90;;;;;;;29.02;42.12;99867.22;4469833;32;33318;-72
2021/07/08 03:53:28;;;;;;;8.30;6.18;;;;;;;29.02;42.15;99869.97;4483920;32;33648;-72
2021/07/08 03:55:56;;;;;;;8.70;6.15;;;;;;;29.01;41.80;99868.31;4483915;32;34937;-72
2021/07/08 03:58:23;;;;;;;8.02;5.82;;;;;;;29.01;42.03;99880.13;4483357;32;33905;-72
2021/07/08 04:00:52;;;;;;;9.95;6.30;;;;;;;29.01;41.96;99879.31;4483920;32;34881;-71
2021/07/08 04:03:19;;;;;;;7.53;5.78;;;;;;;29.00;41.97;99872.16;4483736;32;34804;-72
2021/07/08 04:05:47;;;;;;;12.05;6.03;;;;;;;29.01;41.88;99873.81;4483825;32;34805;-72
2021/07/08 04:08:14;;;;;;;11.57;6.18;;;;;;;29.00;41.96;99881.22;4483786;32;33916;-72
2021/07/08 04:10:43;;;;;;;9.32;6.05;;;;;;;28.98;41.96;99881.47;4469618;32;33087;-73
2021/07/08 04:13:12;;;;;;;9.23;6.00;;;;;;;29.00;42.04;99886.69;4469602;32;34623;-74
2021/07/08 04:15:40;;;;;;;9.38;6.28;;;;;;;29.01;42.07;99887.56;4483837;32;34974;-72
2021/07/08 04:18:08;;;;;;;10.95;5.97;;;;;;;29.02;42.07;99881.78;4483648;32;34341;-72
2021/07/08 04:20:36;;;;;;;8.68;5.93;;;;;;;29.02;42.12;99875.47;4491793;31;33367;-72
2021/07/08 04:23:04;;;;;;;10.30;6.25;;;;;;;29.02;42.24;99884.53;4479780;31;34039;-73
2021/07/08 04:25:36;;;;;;;10.35;5.70;;;;;;;29.02;42.28;99880.97;4495277;31;33644;-72
2021/07/08 04:28:04;;;;;;;11.85;6.35;;;;;;;29.02;42.37;99876.31;4485107;31;33795;-73
2021/07/08 04:30:31;;;;;;;10.63;5.82;;;;;;;29.02;42.42;99880.97;4485176;31;34288;-73
2021/07/08 04:32:59;;;;;;;9.25;6.22;;;;;;;29.02;42.47;99890.03;4499487;31;35349;-73
2021/07/08 04:35:32;;;;;;;10.32;5.95;;;;;;;29.03;42.53;99882.62;4499133;31;34767;-72
2021/07/08 04:37:59;;;;;;;8.35;5.68;;;;;;;29.02;42.53;99887.28;4499190;31;34944;-72
2021/07/08 04:40:27;;;;;;;7.12;5.80;;;;;;;29.01;42.56;99888.38;4485211;31;33722;-73
2021/07/08 04:42:55;;;;;;;12.65;6.15;;;;;;;29.02;42.78;99892.78;4495242;31;34895;-74
2021/07/08 04:45:22;;;;;;;8.65;6.25;;;;;;;29.03;42.73;99899.94;4490068;31;34054;-69
2021/07/08 04:47:50;;;;;;;11.18;6.32;;;;;;;29.01;42.88;99896.63;4469422;32;34622;-74
2021/07/08 04:50:21;;;;;;;10.20;5.80;;;;;;;29.01;42.86;99896.63;4497889;31;33745;-74
2021/07/08 04:52:49;;;;;;;10.20;6.35;;;;;;;29.02;42.86;99890.03;4471726;31;33261;-75
2021/07/08 04:55:18;;;;;;;9.95;6.50;;;;;;;29.03;42.83;99897.19;4484768;31;34090;-74
2021/07/08 04:57:45;;;;;;;11.40;6.03;;;;;;;29.02;42.73;99898.28;4484748;31;33842;-71
2021/07/08 05:00:14;;;;;;;8.70;6.12;;;;;;;29.02;42.71;99903.78;4499162;31;33208;-75
2021/07/08 05:02:42;;;;;;;9.02;6.18;;;;;;;29.02;42.73;99897.44;4483251;32;34051;-74
2021/07/08 05:05:10;;;;;;;14.68;6.55;;;;;;;29.01;42.82;99902.13;4468991;32;34825;-74
2021/07/08 05:07:38;;;;;;;9.68;6.55;;;;;;;29.02;42.87;99892.78;4468805;32;33538;-75
2021/07/08 05:10:08;;;;;;;10.88;6.95;;;;;;;29.03;42.76;99890.84;4484388;32;34200;-75
2021/07/08 05:12:35;;;;;;;;;;;;;;;29.01;42.82;99899.38;4471332;32;33978;-73
2021/07/08 05:15:09;;;;;;;8.73;5.72;;;;;;;29.14;42.50;99901.66;4470991;32;34342;-73
2021/07/08 05:17:36;;;;;;;13.73;6.28;;;;;;;29.05;42.72;99903.25;4458186;32;34887;-74
2021/07/08 05:20:05;;;;;;;12.18;6.03;;;;;;;29.04;42.73;99901.56;4470838;32;33406;-73
2021/07/08 05:22:33;;;;;;;11.27;5.75;;;;;;;29.03;42.70;99902.66;4457836;32;33372;-74
2021/07/08 05:25:01;;;;;;;9.90;6.47;;;;;;;29.04;42.66;99901.56;4470589;32;33938;-73
2021/07/08 05:27:32;;;;;;;8.10;5.60;;;;;;;29.06;42.63;99907.66;4470603;32;34048;-75
2021/07/08 05:30:00;;;;;;;10.40;6.20;;;;;;;29.07;42.64;99906.56;4470664;32;32247;-72
2021/07/08 05:32:27;;;;;;;9.13;5.78;;;;;;;29.07;42.59;99906.56;4470835;32;34051;-75
2021/07/08 05:34:55;;;;;;;11.98;6.00;;;;;;;29.09;42.58;99909.84;4484774;32;34037;-71
2021/07/08 05:37:22;;;;;;;8.52;5.93;;;;;;;29.10;42.54;99907.94;4484887;32;34589;-73
2021/07/08 05:39:50;;;;;;;7.28;5.25;;;;;;;29.11;42.45;99912.38;4485134;32;33331;-73
2021/07/08 05:42:18;;;;;;;9.30;6.15;;;;;;;29.12;42.43;99914.00;4484782;32;33743;-72
2021/07/08 05:44:45;;;;;;;10.38;6.85;;;;;;;29.13;42.42;99912.91;4470741;32;34103;-70
2021/07/08 05:47:13;;;;;;;7.72;5.45;;;;;;;29.13;42.44;99916.50;4484836;32;33880;-74
2021/07/08 05:49:57;;;;;;;9.32;5.72;;;;;;;29.13;42.38;99916.50;4484861;32;33005;-72
2021/07/08 05:52:25;;;;;;;9.23;5.97;;;;;;;29.12;42.37;99914.84;4470505;32;34477;-72
2021/07/08 05:54:52;;;;;;;8.15;6.25;;;;;;;29.14;42.37;99920.06;4484705;32;34147;-74
2021/07/08 05:57:20;;;;;;;8.65;6.32;;;;;;;29.13;42.41;99918.41;4470459;32;34028;-74
2021/07/08 05:59:47;;;;;;;8.23;5.78;;;;;;;29.11;42.41;99915.94;4470672;32;33424;-74
2021/07/08 06:02:15;;;;;;;8.98;6.15;;;;;;;29.14;42.33;99920.88;4484612;32;34730;-74
2021/07/08 06:04:43;;;;;;;10.75;6.55;;;;;;;29.13;42.34;99919.25;4484766;32;33971;-74
2021/07/08 06:07:10;;;;;;;10.15;6.62;;;;;;;29.14;42.34;99920.06;4485952;31;33620;-70
2021/07/08 06:09:38;;;;;;;8.40;6.85;;;;;;;29.15;42.32;99924.50;4491494;31;33584;-72
2021/07/08 06:12:05;;;;;;;9.02;6.50;;;;;;;29.13;42.50;99921.97;4491980;31;33926;-73
2021/07/08 06:14:33;;;;;;;7.85;6.05;;;;;;;29.15;42.43;99921.75;4484772;32;34918;-72
2021/07/08 06:17:01;;;;;;;9.70;6.70;;;;;;;29.16;42.38;99926.97;4498648;31;33927;-73
2021/07/08 06:19:29;;;;;;;9.27;6.40;;;;;;;29.15;42.38;99917.06;4486350;31;34729;-72
2021/07/08 06:21:56;;;;;;;11.95;6.47;;;;;;;29.16;42.33;99921.47;4500279;31;34175;-74
2021/07/08 06:24:24;;;;;;;11.68;6.87;;;;;;;29.16;42.41;99923.41;4494292;31;33894;-73
2021/07/08 06:26:51;;;;;;;13.77;6.80;;;;;;;29.17;42.38;99923.13;4489231;31;34014;-74
2021/07/08 06:29:19;;;;;;;9.07;6.05;;;;;;;29.16;42.53;99921.47;4485052;31;33675;-72
2021/07/08 06:31:46;;;;;;;9.77;6.80;;;;;;;29.15;42.67;99919.00;4492979;31;34957;-74
2021/07/08 06:34:14;;;;;;;11.45;6.70;;;;;;;29.16;42.64;99915.97;4491786;31;34307;-73
2021/07/08 06:36:41;;;;;;;8.82;6.22;;;;;;;29.15;42.71;99922.56;4493193;31;34102;-74
2021/07/08 06:39:09;;;;;;;13.15;7.00;;;;;;;29.17;42.65;99930.53;4484764;32;34132;-74
2021/07/08 06:41:37;;;;;;;11.40;6.35;;;;;;;29.17;42.55;99919.56;4496614;31;33477;-73
2021/07/08 06:44:04;;;;;;;12.95;6.65;;;;;;;29.17;42.62;99930.53;4500311;31;34981;-72
2021/07/08 06:46:32;;;;;;;10.10;6.97;;;;;;;29.17;42.66;99931.38;4500200;31;33888;-70
2021/07/08 06:49:00;;;;;;;14.45;6.97;;;;;;;29.17;42.67;99936.03;4500255;31;33398;-70
2021/07/08 06:51:27;;;;;;;11.55;6.95;;;;;;;29.17;42.84;99928.62;4486099;31;33898;-70
2021/07/08 06:53:55;;;;;;;12.35;7.45;;;;;;;29.17;42.87;99936.03;4486950;31;34258;-70
2021/07/08 06:56:23;;;;;;;16.45;6.65;;;;;;;29.16;42.83;99929.72;4488928;31;34121;-69
2021/07/08 06:58:51;;;;;;;12.35;6.53;;;;;;;29.16;42.63;99926.97;4473052;31;33051;-71
2021/07/08 07:01:18;;;;;;;10.50;6.70;;;;;;;29.18;42.54;99927.53;4500016;31;33959;-70
2021/07/08 07:03:46;;;;;;;10.45;5.85;;;;;;;29.18;42.58;99930.28;4500260;31;34920;-70
2021/07/08 07:06:14;;;;;;;13.30;6.75;;;;;;;29.18;42.62;99929.44;4499481;31;34766;-71
2021/07/08 07:08:45;;;;;;;16.55;6.65;;;;;;;29.18;42.66;99937.69;4497226;31;33335;-70
2021/07/08 07:11:13;;;;;;;16.95;7.20;;;;;;;29.18;42.73;99944.00;4485233;31;33965;-70
2021/07/08 07:13:40;;;;;;;12.18;6.35;;;;;;;29.19;42.72;99939.34;4500167;31;33818;-71
2021/07/08 07:16:08;;;;;;;12.52;6.90;;;;;;;29.19;42.59;99937.44;4499997;31;33476;-70
2021/07/08 07:18:40;;;;;;;15.80;5.80;;;;;;;29.19;42.55;99937.44;4500275;31;34217;-69
2021/07/08 07:21:11;;;;;;;10.05;5.95;;;;;;;29.19;42.59;99940.19;4499987;31;34780;-70
2021/07/08 07:23:39;;;;;;;11.32;6.40;;;;;;;29.20;42.55;99941.84;4486085;31;33978;-70
2021/07/08 07:26:06;;;;;;;10.23;6.95;;;;;;;29.21;42.59;99943.50;4485605;31;33972;-72
2021/07/08 07:28:34;;;;;;;10.90;6.30;;;;;;;29.21;42.52;99954.50;4499802;31;34274;-70
2021/07/08 07:31:03;;;;;;;8.98;6.20;;;;;;;29.21;42.53;99945.41;4500178;31;34746;-70
2021/07/08 07:33:30;;;;;;;13.48;6.85;;;;;;;29.21;42.52;99950.91;4499158;31;35076;-70
2021/07/08 07:35:58;;;;;;;11.18;6.72;;;;;;;29.21;42.51;99938.00;4499802;31;33864;-70
2021/07/08 07:38:26;;;;;;;11.25;6.00;;;;;;;29.22;42.49;99941.56;4499903;31;33640;-69
2021/07/08 07:40:54;;;;;;;9.07;5.87;;;;;;;29.22;42.43;99950.63;4500201;31;34625;-70
2021/07/08 07:43:22;;;;;;;9.98;6.00;;;;;;;29.23;42.42;99943.22;4472527;31;34573;-70
2021/07/08 07:45:49;;;;;;;9.20;6.07;;;;;;;29.21;42.43;99946.25;4499856;31;33952;-69
2021/07/08 07:48:17;;;;;;;12.52;6.20;;;;;;;29.22;42.49;99939.66;4499673;31;33421;-70
2021/07/08 07:50:45;;;;;;;12.75;6.28;;;;;;;29.25;42.36;99945.72;4485365;31;33861;-69
2021/07/08 07:53:13;;;;;;;9.77;6.28;;;;;;;29.23;42.37;99933.06;4499705;31;33992;-69
2021/07/08 07:55:40;;;;;;;11.15;6.55;;;;;;;29.23;42.42;99937.72;4499829;31;34151;-69
2021/07/08 07:58:08;;;;;;;12.45;6.70;;;;;;;29.23;42.47;99935.81;4499720;31;34341;-69
2021/07/08 08:00:35;;;;;;;8.95;6.53;;;;;;;29.23;42.33;99933.06;4499571;31;34306;-68
2021/07/08 08:03:04;;;;;;;11.23;6.18;;;;;;;29.25;42.34;99930.06;4485114;31;33726;-69
2021/07/08 08:05:37;;;;;;;10.05;5.97;;;;;;;29.23;42.36;99933.06;4485365;31;34006;-68
2021/07/08 08:10:52;;;;;;;13.13;6.72;;;;;;;29.24;42.47;99939.41;4499533;31;34438;-68
2021/07/08 08:13:21;;;;;;;9.68;6.18;;;;;;;29.24;42.40;99920.16;4485443;31;34042;-69
2021/07/08 08:15:50;;;;;;;14.52;6.28;;;;;;;29.24;42.46;99911.94;4499438;31;34674;-68
2021/07/08 08:18:19;;;;;;;11.60;5.90;;;;;;;29.25;42.43;99916.31;4499531;31;34282;-69
2021/07/08 08:20:47;;;;;;;12.23;6.37;;;;;;;29.24;42.48;99920.16;4472476;31;34195;-68
2021/07/08 08:23:15;;;;;;;10.52;6.32;;;;;;;29.27;42.54;99922.38;4499305;31;33953;-68
2021/07/08 08:25:42;;;;;;;11.05;6.00;;;;;;;29.28;42.54;99921.28;4499469;31;34665;-68
2021/07/08 08:28:10;;;;;;;11.90;6.32;;;;;;;29.29;42.58;99914.72;4485261;31;33127;-69
2021/07/08 08:30:38;;;;;;;11.12;5.30;;;;;;;29.30;42.58;99915.53;4484571;31;33507;-68
2021/07/08 08:33:05;;;;;;;11.07;6.07;;;;;;;29.30;42.63;99915.53;4493576;31;34936;-67
2021/07/08 08:35:33;;;;;;;7.78;5.50;;;;;;;29.31;42.66;99907.03;4483602;32;33967;-68
2021/07/08 08:38:01;;;;;;;10.82;5.78;;;;;;;29.32;42.69;99913.34;4476894;31;34089;-70
2021/07/08 08:40:29;;;;;;;8.63;5.45;;;;;;;29.32;42.70;99910.59;4484911;31;33997;-69
2021/07/08 08:42:56;;;;;;;9.73;5.55;;;;;;;29.34;42.69;99922.16;4498967;31;34125;-70
2021/07/08 08:45:24;;;;;;;11.45;5.60;;;;;;;29.33;42.73;99932.34;4459082;31;34163;-70
2021/07/08 08:48:04;;;;;;;8.00;5.75;;;;;;;29.33;42.77;99937.84;4499508;31;34529;-70
2021/07/08 08:50:39;;;;;;;7.57;5.18;;;;;;;29.34;42.75;99944.97;4474965;32;33905;-69
2021/07/08 08:53:07;;;;;;;7.82;5.43;;;;;;;29.37;42.66;99935.38;4483152;32;34008;-69
2021/07/08 08:55:36;;;;;;;8.88;5.93;;;;;;;29.36;42.76;99941.97;4473878;31;33817;-70
2021/07/08 08:58:07;;;;;;;10.73;5.25;;;;;;;29.34;42.81;99944.97;4499115;31;33072;-69
2021/07/08 09:00:51;;;;;;;10.45;5.53;;;;;;;29.36;42.80;99914.47;4498922;31;33717;-68
2021/07/08 09:03:26;;;;;;;9.20;5.70;;;;;;;29.37;42.78;99921.62;4498857;31;33944;-70
2021/07/08 09:06:06;;;;;;;9.43;5.32;;;;;;;29.36;42.82;99918.06;4498973;31;33944;-71
2021/07/08 09:08:49;;;;;;;6.87;5.32;;;;;;;29.36;42.86;99925.47;4499138;31;34231;-70
2021/07/08 09:11:21;;;;;;;9.07;5.45;;;;;;;29.38;42.85;99923.31;4498892;31;33682;-69
2021/07/08 09:14:01;;;;;;;9.52;5.85;;;;;;;29.34;42.93;99949.66;4472915;31;34159;-69
2021/07/08 09:16:33;;;;;;;7.43;5.47;;;;;;;29.35;42.82;99915.56;4472008;31;34608;-68
2021/07/08 09:19:12;;;;;;;8.40;5.35;;;;;;;29.33;42.80;99913.09;4498707;31;33512;-70
2021/07/08 09:21:42;;;;;;;11.90;5.97;;;;;;;29.34;42.74;99919.41;4498782;31;34673;-70
2021/07/08 09:24:15;;;;;;;10.45;5.97;;;;;;;29.34;42.88;99938.66;4484815;31;34807;-70
2021/07/08 09:26:56;;;;;;;12.85;5.28;;;;;;;29.33;42.88;99936.97;4498569;31;33708;-70
2021/07/08 09:29:28;;;;;;;10.77;5.65;;;;;;;29.35;42.86;99934.81;4498542;31;34043;-71
2021/07/08 09:32:06;;;;;;;7.40;5.15;;;;;;;29.31;42.86;99912.50;4498409;31;34120;-70
2021/07/08 09:34:57;;;;;;;10.40;5.37;;;;;;;29.34;42.64;99911.19;4498638;31;34094;-70
2021/07/08 09:37:27;;;;;;;7.03;4.72;;;;;;;29.33;42.65;99909.50;4498335;31;34800;-68
2021/07/08 09:40:02;;;;;;;9.15;5.10;;;;;;;29.31;42.63;99909.78;4484142;31;33763;-69
2021/07/08 09:42:45;;;;;;;7.15;5.35;;;;;;;29.33;42.60;99909.50;4498286;31;33780;-69
2021/07/08 09:45:16;;;;;;;9.05;4.82;;;;;;;29.35;42.51;99907.31;4471534;31;34004;-71
2021/07/08 09:47:45;;;;;;;9.10;6.62;;;;;;;29.32;42.62;99902.34;4498367;31;33785;-70
2021/07/08 09:50:34;;;;;;;8.55;5.00;;;;;;;29.31;42.57;99895.19;4498505;31;34430;-71
2021/07/08 09:53:07;;;;;;;8.90;5.22;;;;;;;29.35;42.45;99908.16;4498175;31;33982;-70
2021/07/08 09:55:56;;;;;;;9.23;4.93;;;;;;;29.32;42.47;99892.19;4499377;31;34734;-70
2021/07/08 09:58:25;;;;;;;8.23;5.03;;;;;;;29.35;42.52;99896.34;4500561;31;33993;-70
2021/07/08 10:00:53;;;;;;;8.37;5.47;;;;;;;29.33;42.48;99895.75;4499575;31;34331;-69
2021/07/08 10:03:21;;;;;;;9.00;5.45;;;;;;;29.32;42.50;99894.94;4498397;31;34268;-69
2021/07/08 10:05:49;;;;;;;8.40;5.32;;;;;;;29.31;42.46;99896.03;4499985;31;34849;-68
2021/07/08 10:08:17;;;;;;;8.10;5.82;;;;;;;29.32;42.46;99896.84;4500352;31;33899;-69
2021/07/08 10:10:45;;;;;;;8.65;5.30;;;;;;;29.31;42.46;99900.69;4473415;31;33349;-69
2021/07/08 10:13:12;;;;;;;8.80;5.12;;;;;;;29.31;42.46;99900.69;4473353;31;34016;-69
2021/07/08 10:15:41;;;;;;;6.80;4.65;;;;;;;29.31;42.47;99922.69;4472603;31;33964;-70
2021/07/08 10:18:13;;;;;;;8.52;5.47;;;;;;;29.31;42.38;99893.28;4479422;32;32381;-69
2021/07/08 10:20:42;;;;;;;8.10;5.25;;;;;;;29.32;42.38;99924.34;4470611;32;34150;-70
2021/07/08 10:23:10;;;;;;;7.32;4.87;;;;;;;29.31;42.31;99929.00;4480049;31;33633;-70
2021/07/08 10:25:38;;;;;;;9.80;5.10;;;;;;;29.31;42.36;99925.44;4486084;31;34974;-70
2021/07/08 10:28:05;;;;;;;7.57;5.03;;;;;;;29.32;42.33;99918.84;4500097;31;34064;-70
2021/07/08 10:30:32;;;;;;;6.72;5.18;;;;;;;29.32;42.30;99927.09;4480373;31;33534;-70
2021/07/08 10:33:03;;;;;;;7.40;5.70;;;;;;;29.33;42.32;99923.22;4471139;32;35217;-70
2021/07/08 10:35:42;;;;;;;9.32;5.10;;;;;;;29.31;42.31;99914.44;4477952;31;34609;-70
2021/07/08 10:38:28;;;;;;;7.93;4.97;;;;;;;29.33;42.33;99920.50;4473441;31;34090;-70
2021/07/08 10:40:56;;;;;;;6.68;5.05;;;;;;;29.35;42.21;99912.81;4500037;31;33537;-69
2021/07/08 10:43:40;;;;;;;7.05;5.03;;;;;;;29.31;42.26;99903.44;4499273;31;34897;-70
2021/07/08 10:46:34;;;;;;;7.12;5.03;;;;;;;29.33;42.23;99910.34;4498843;31;34003;-69
2021/07/08 10:49:12;;;;;;;7.50;5.30;;;;;;;29.34;42.19;99908.44;4498646;31;33223;-70
2021/07/08 10:51:42;;;;;;;8.55;5.37;;;;;;;29.33;42.20;99904.84;4457235;32;33478;-71
2021/07/08 10:54:33;;;;;;;7.68;5.15;;;;;;;29.32;42.21;99905.09;4484318;32;34057;-70
2021/07/08 10:57:01;;;;;;;10.52;4.65;;;;;;;29.35;42.11;99910.91;4484074;32;34058;-70
2021/07/08 10:59:41;;;;;;;8.82;5.55;;;;;;;29.31;42.30;99900.69;4484316;32;34630;-68
2021/07/08 11:02:48;;;;;;;7.53;5.20;;;;;;;29.31;42.32;99896.03;4484125;32;33501;-70
2021/07/08 11:05:55;;;;;;;10.98;5.28;;;;;;;29.33;42.37;99882.00;4484304;32;33726;-69
2021/07/08 11:08:44;;;;;;;7.50;4.93;;;;;;;29.36;42.28;99895.22;4403743;32;34727;-68
2021/07/08 11:11:24;;;;;;;7.70;5.40;;;;;;;29.33;42.36;99888.38;4404582;32;33739;-69
2021/07/08 11:13:53;;;;;;;9.20;5.12;;;;;;;29.31;42.35;99873.22;4448106;32;33380;-69
2021/07/08 11:16:53;;;;;;;7.97;5.45;;;;;;;29.31;42.31;99879.53;4484353;32;34391;-69
2021/07/08 11:19:21;;;;;;;6.57;5.28;;;;;;;29.36;42.30;99881.50;4484159;32;33830;-69
2021/07/08 11:21:52;;;;;;;8.55;5.05;;;;;;;29.34;42.38;99883.69;4484172;32;34283;-77
2021/07/08 11:24:47;;;;;;;12.07;4.90;;;;;;;29.32;42.45;99874.88;4492467;31;33615;-70
2021/07/08 11:27:23;;;;;;;10.38;5.43;;;;;;;29.34;42.50;99873.53;4499933;31;33927;-69
2021/07/08 11:29:58;;;;;;;13.90;5.12;;;;;;;29.35;42.60;99874.34;4499880;31;34037;-69
2021/07/08 11:32:42;;;;;;;13.88;5.37;;;;;;;29.33;42.73;99877.38;4473423;31;33730;-70
2021/07/08 11:35:19;;;;;;;9.23;5.37;;;;;;;29.35;42.61;99877.91;4499853;31;33029;-70
2021/07/08 11:37:59;;;;;;;7.00;5.43;;;;;;;29.34;42.68;99869.94;4498817;31;33914;-69
2021/07/08 11:40:35;;;;;;;9.15;5.47;;;;;;;29.34;42.58;99856.22;4499888;31;34088;-69
2021/07/08 11:43:30;;;;;;;10.70;5.50;;;;;;;29.34;42.59;99858.97;4499893;31;33563;-69
2021/07/08 11:46:10;;;;;;;9.23;4.93;;;;;;;29.38;42.47;99860.09;4499810;31;33445;-69